createdAt,value
2018-08-12T14:15:25.728Z,5.35
2018-08-12T14:18:54.800Z,5.35
2018-08-12T14:21:32.131Z,6.00
2018-08-12T14:24:09.744Z,6.72
2018-08-12T14:26:47.174Z,9.93
2018-08-12T14:29:24.753Z,10.17
2018-08-12T14:32:02.761Z,16.43
2018-08-12T14:34:39.535Z,8.80
2018-08-12T14:37:15.066Z,7.70
2018-08-12T14:42:24.531Z,12.20
2018-08-12T14:45:00.862Z,8.88
2018-08-12T14:47:38.468Z,5.37
2018-08-12T14:50:19.444Z,6.28
2018-08-12T14:52:55.332Z,4.80
2018-08-12T14:55:31.599Z,6.30
2018-08-12T14:58:07.871Z,4.30
2018-08-12T15:00:43.970Z,4.37
2018-08-12T15:03:21.525Z,7.80
2018-08-12T15:05:58.565Z,4.57
2018-08-12T15:08:36.651Z,4.67
2018-08-12T15:11:13.650Z,7.43
2018-08-12T15:13:49.751Z,6.53
2018-08-12T15:16:26.748Z,5.97
2018-08-12T15:19:03.020Z,6.85
2018-08-12T15:21:39.098Z,8.63
2018-08-12T15:24:15.342Z,5.43
2018-08-12T15:26:51.458Z,4.97
2018-08-12T15:29:27.878Z,6.13
2018-08-12T15:32:03.977Z,8.98
2018-08-12T15:34:45.252Z,10.20
2018-08-12T15:37:23.576Z,7.70
2018-08-12T15:40:05.183Z,7.35
2018-08-12T15:42:42.337Z,8.87
2018-08-12T15:45:20.097Z,6.00
2018-08-12T15:47:56.260Z,7.42
2018-08-12T15:50:32.390Z,6.17
2018-08-12T15:53:10.229Z,7.23
2018-08-12T15:55:45.965Z,7.93
2018-08-12T15:58:22.043Z,7.35
2018-08-12T16:03:34.511Z,7.33
2018-08-12T16:06:12.315Z,7.67
2018-08-12T16:08:48.791Z,8.93
2018-08-12T16:11:25.770Z,7.92
2018-08-12T16:14:01.816Z,6.13
2018-08-12T16:16:38.037Z,5.90
2018-08-12T16:19:14.186Z,6.10
2018-08-12T16:21:51.417Z,6.07
2018-08-12T16:24:27.774Z,7.37
2018-08-12T16:27:03.973Z,6.67
2018-08-12T16:29:39.840Z,9.50
2018-08-12T16:32:16.116Z,12.70
2018-08-12T16:37:26.532Z,8.83
2018-08-12T16:40:02.899Z,7.67
2018-08-12T16:42:40.136Z,8.43
2018-08-12T16:47:52.815Z,7.37
2018-08-12T16:50:30.128Z,4.63
2018-08-12T16:53:06.580Z,6.97
2018-08-12T16:55:42.955Z,10.23
2018-08-12T16:58:19.473Z,11.40
2018-08-12T17:00:55.597Z,10.10
2018-08-12T17:03:31.828Z,6.90
2018-08-12T17:08:43.233Z,6.77
2018-08-12T17:11:20.912Z,5.00
2018-08-12T17:13:57.043Z,5.87
2018-08-12T17:16:32.802Z,8.37
2018-08-12T17:19:10.257Z,6.37
2018-08-12T17:21:45.993Z,6.60
2018-08-12T17:24:21.732Z,5.30
2018-08-12T17:27:00.019Z,7.73
2018-08-12T17:32:11.270Z,11.77
2018-08-12T17:34:48.005Z,9.83
2018-08-12T17:39:57.805Z,5.33
2018-08-12T17:42:33.615Z,4.70
2018-08-12T17:45:10.599Z,4.33
2018-08-12T17:49:37.061Z,7.72
2018-08-12T17:52:12.709Z,9.30
2018-08-12T17:54:48.547Z,8.33
2018-08-12T17:57:24.445Z,9.37
2018-08-12T18:00:02.364Z,8.60
2018-08-12T18:02:38.272Z,6.37
2018-08-12T18:05:14.081Z,3.60
2018-08-12T18:07:49.804Z,4.12
2018-08-12T18:10:28.018Z,6.97
2018-08-12T18:13:04.819Z,3.97
2018-08-12T18:15:40.541Z,3.53
2018-08-12T18:18:16.590Z,3.10
2018-08-12T18:20:52.334Z,2.57
2018-08-12T18:23:28.163Z,3.50
2018-08-12T18:26:05.083Z,4.43
2018-08-12T18:28:41.049Z,3.85
2018-08-12T18:31:16.859Z,3.80
2018-08-12T18:33:52.828Z,6.40
2018-08-12T18:36:28.614Z,6.42
2018-08-12T18:39:04.630Z,6.03
2018-08-12T18:41:41.549Z,7.30
2018-08-12T18:44:17.163Z,6.57
2018-08-12T18:46:52.943Z,8.83
2018-08-12T18:49:29.842Z,9.57
2018-08-12T18:52:06.519Z,5.60
2018-08-12T18:54:42.341Z,5.90
2018-08-12T18:57:18.154Z,8.93
2018-08-12T18:59:53.818Z,8.43
2018-08-12T19:02:29.567Z,6.50
2018-08-12T19:05:06.091Z,6.33
2018-08-12T19:07:43.295Z,7.97
2018-08-12T19:10:19.095Z,6.95
2018-08-12T19:12:54.835Z,6.20
2018-08-12T19:15:30.585Z,8.07
2018-08-12T19:18:07.730Z,8.93
2018-08-12T19:20:43.220Z,8.27
2018-08-12T19:23:19.082Z,7.90
2018-08-12T19:25:54.629Z,7.93
2018-08-12T19:28:31.272Z,9.60
2018-08-12T19:31:06.844Z,11.40
2018-08-12T19:33:42.739Z,10.63
2018-08-12T19:36:19.880Z,11.57
2018-08-12T19:38:55.632Z,10.90
2018-08-12T19:41:32.971Z,10.53
2018-08-12T19:44:10.741Z,11.60
2018-08-12T19:46:46.681Z,10.83
2018-08-12T19:51:56.746Z,8.23
2018-08-12T19:54:34.271Z,9.53
2018-08-12T19:57:11.121Z,9.07
2018-08-12T19:59:47.284Z,9.47
2018-08-12T20:02:23.345Z,9.23
2018-08-12T20:07:35.639Z,7.97
2018-08-12T20:10:14.285Z,8.00
2018-08-12T20:12:49.855Z,9.90
2018-08-12T20:15:25.879Z,6.83
2018-08-12T20:18:02.688Z,8.10
2018-08-12T20:20:39.591Z,7.33
2018-08-12T20:23:16.114Z,6.37
2018-08-12T20:25:52.248Z,5.50
2018-08-12T20:31:03.609Z,5.47
2018-08-12T20:33:39.401Z,4.37
2018-08-12T20:36:15.342Z,5.40
2018-08-12T20:41:39.055Z,4.96
2018-08-12T20:44:16.206Z,3.93
2018-08-12T20:49:26.350Z,5.80
2018-08-12T20:52:02.255Z,4.80
2018-08-12T20:57:31.351Z,3.12
2018-08-12T21:05:15.544Z,3.13
2018-08-12T21:07:52.720Z,3.70
2018-08-12T21:10:28.884Z,2.50
2018-08-12T21:13:05.929Z,2.83
2018-08-12T21:18:25.214Z,2.40
2018-08-12T21:21:01.076Z,2.37
2018-08-12T21:23:37.004Z,3.10
2018-08-12T21:26:12.955Z,3.72
2018-08-12T21:28:50.128Z,2.53
2018-08-12T21:31:26.883Z,3.13
2018-08-12T21:34:02.916Z,5.47
2018-08-12T21:36:38.713Z,3.73
2018-08-12T21:39:16.729Z,3.42
2018-08-12T21:41:52.720Z,6.80
2018-08-12T21:44:28.692Z,6.83
2018-08-12T21:47:05.818Z,5.03
2018-08-12T21:49:41.380Z,5.72
2018-08-12T21:52:17.152Z,3.97
2018-08-12T21:54:53.913Z,4.15
2018-08-12T21:57:30.662Z,3.93
2018-08-12T22:00:06.945Z,5.27
2018-08-12T22:02:42.888Z,3.80
2018-08-12T22:07:53.913Z,4.60
2018-08-12T22:10:29.733Z,4.97
2018-08-12T22:13:07.927Z,3.70
2018-08-12T22:15:45.510Z,4.37
2018-08-12T22:18:21.164Z,4.60
2018-08-12T22:20:58.094Z,3.60
2018-08-12T22:26:07.688Z,2.80
2018-08-12T22:28:43.913Z,2.47
2018-08-12T22:31:19.929Z,2.73
2018-08-12T22:33:56.783Z,2.90
2018-08-12T22:36:32.697Z,3.40
2018-08-12T22:42:09.342Z,2.27
2018-08-12T22:44:45.620Z,2.73
2018-08-12T22:47:21.568Z,4.30
2018-08-12T22:49:59.135Z,3.93
2018-08-12T22:52:34.942Z,3.33
2018-08-12T22:55:12.256Z,1.90
2018-08-12T22:57:49.351Z,4.03
2018-08-12T23:00:28.636Z,3.53
2018-08-12T23:03:06.915Z,3.52
2018-08-12T23:05:42.773Z,2.12
2018-08-12T23:08:19.108Z,1.87
2018-08-12T23:10:55.680Z,2.13
2018-08-12T23:13:33.905Z,2.62
2018-08-12T23:16:27.280Z,1.90
2018-08-12T23:19:03.677Z,2.57
2018-08-12T23:21:39.355Z,1.63
2018-08-12T23:24:15.981Z,2.25
2018-08-12T23:26:52.918Z,2.60
2018-08-12T23:29:30.681Z,1.65
2018-08-12T23:32:08.928Z,1.50
2018-08-12T23:34:44.926Z,1.52
2018-08-12T23:37:21.255Z,1.30
2018-08-12T23:39:57.369Z,8.95
2018-08-12T23:42:35.328Z,4.07
2018-08-12T23:45:11.951Z,6.27
2018-08-12T23:47:49.410Z,3.77
2018-08-12T23:53:01.075Z,4.50
2018-08-12T23:58:32.937Z,4.43
